Elwood, IN

11:01 PM EST on February 05, 2016 (GMT -0500)
Pipe Creek Township Alexandria/Frankton | | Change Station
CLOSE
Current Station
Personal Weather Station
Location: Alexandria, IN
Elevation: 860 ft
Nearby Weather Stations

Elev 860 ft 40.25 °N, 85.75 °W | Updated 14 minutes ago

Clear
Clear
25.5 °F
Feels Like 21 °F
N
3.7
Wind Variable Wind from West

Today
High -- | Low -- °F
--% Chance of Precip.
Yesterday
High -- | Low -- °F
Precip. -- in
Pressure 30.34 in
Visibility 10.0 miles
Clouds Clear
Windchill 21 °F
Dew Point 23 °F
Humidity 91%
Rainfall 0.00 in
Snow Depth Not available.
7:48 AM 6:06 PM
Waning Crescent, 8% visible
METAR KMZZ 060335Z AUTO 28005KT 10SM CLR M04/M08 A3034 RMK AO2 T10381077
Pressure 30.34 in
Visibility 10.0 miles
Clouds Clear
Windchill 21 °F
Dew Point 23 °F
Humidity 91%
Rainfall 0.00 in
Snow Depth Not available.
7:48 AM 6:06 PM
Waning Crescent, 8% visible
METAR KMZZ 060335Z AUTO 28005KT 10SM CLR M04/M08 A3034 RMK AO2 T10381077

10-Day Weather Forecast

Almanac

Astronomy

Feb. 05, 2016 Rise Set
Actual Time
Civil Twilight
Nautical Twilight
Astronomical Twilight
Moon
Length of Visible Light
Length of Day
Tomorrow will be .
, % of the Moon is Illuminated

Today's Extremes

State Highs State Lows

Community

WunderPhotos

Upload Photos

1,890,916 photos uploaded!

WunderBlog® & News

Nearby

Air Quality

  Air Quality AQ Index Pollutant
Not available.

Snow Depth

Station Depth Elevation

Earthquake Activity

City Distance Mag. Time & Date
Minimum magnitude displayed is 2.5.

Coastal Water Temperatures

Place Temperature

Stations

Nearby Weather Stations

Station Location Temp. Windchill Dew Point Humidity Wind Precip. Elev Updated Type
                   

Watches & Warnings

There are currently no watches in effect.